Time;durP1;ratioP1;P1;durP2;ratioP2;P2;SDS_P1;SDS_P2;PMS_P1;PMS_P2;Temp;Humidity;BMP_temperature;BMP_pressure;BME280_temperature;BME280_humidity;BME280_pressure;Samples;Min_cycle;Max_cycle;Signal;HPM_P1;HPM_P2
2022/04/03 00:00:58;;;;;;;6.80;3.50;;;;;;;-2.10;100.00;100632.13;5077403;28;20397;-88
2022/04/03 00:03:24;;;;;;;6.30;3.33;;;;;;;-2.09;100.00;100628.69;5076482;28;20019;-88
2022/04/03 00:05:49;;;;;;;7.47;3.25;;;;;;;-2.03;100.00;100629.72;5077278;28;20027;-87
2022/04/03 00:08:17;;;;;;;7.57;3.55;;;;;;;-1.97;100.00;100628.13;5075778;28;20059;-88
2022/04/03 00:10:45;;;;;;;7.35;3.83;;;;;;;-2.09;100.00;100629.56;5077104;28;20023;-88
2022/04/03 00:13:11;;;;;;;8.05;4.10;;;;;;;-2.23;100.00;100641.38;5075424;28;20501;-88
2022/04/03 00:15:41;;;;;;;6.30;3.75;;;;;;;-2.33;100.00;100642.84;5075614;28;20063;-88
2022/04/03 00:18:07;;;;;;;7.93;3.53;;;;;;;-2.26;100.00;100636.94;5076986;28;20024;-87
2022/04/03 00:20:32;;;;;;;9.10;3.85;;;;;;;-2.26;100.00;100643.06;5076332;28;20500;-87
2022/04/03 00:22:57;;;;;;;6.25;3.55;;;;;;;-2.27;100.00;100627.34;5076986;28;20058;-87
2022/04/03 00:25:23;;;;;;;7.03;3.90;;;;;;;-2.30;100.00;100635.09;5076422;28;20028;-88
2022/04/03 00:27:48;;;;;;;7.07;3.55;;;;;;;-2.34;100.00;100628.00;5079367;28;20020;-87
2022/04/03 00:30:14;;;;;;;7.40;3.75;;;;;;;-2.38;100.00;100633.13;5078742;28;20029;-88
2022/04/03 00:32:40;;;;;;;7.60;3.92;;;;;;;-2.43;100.00;100624.28;5076286;28;20028;-88
2022/04/03 00:35:06;;;;;;;7.85;3.75;;;;;;;-2.42;100.00;100633.88;5075704;28;20020;-87
2022/04/03 00:37:32;;;;;;;9.73;4.68;;;;;;;-2.45;100.00;100636.44;5076053;28;20042;-89
2022/04/03 00:39:58;;;;;;;6.07;3.30;;;;;;;-2.42;100.00;100625.16;5076104;28;20058;-88
2022/04/03 00:42:23;;;;;;;7.32;3.47;;;;;;;-2.30;100.00;100627.22;5075256;28;20016;-87
2022/04/03 00:44:49;;;;;;;6.35;3.67;;;;;;;-2.38;100.00;100627.00;5075921;28;20020;-87
2022/04/03 00:47:16;;;;;;;5.75;3.30;;;;;;;-2.45;100.00;100625.06;5076313;28;20024;-87
2022/04/03 00:49:42;;;;;;;7.72;4.30;;;;;;;-2.51;100.00;100631.00;5076505;28;20543;-87
2022/04/03 00:52:08;;;;;;;6.30;3.50;;;;;;;-2.46;100.00;100624.19;5078450;28;20025;-88
2022/04/03 00:54:34;;;;;;;6.57;3.97;;;;;;;-2.32;100.00;100623.69;5075184;28;20581;-87
2022/04/03 00:57:02;;;;;;;5.70;3.03;;;;;;;-2.27;100.00;100627.34;5075955;28;20025;-87
2022/04/03 00:59:28;;;;;;;7.45;3.50;;;;;;;-2.21;100.00;100624.88;5075747;28;20020;-88
2022/04/03 01:01:53;;;;;;;9.68;3.58;;;;;;;-2.24;100.00;100624.78;5076969;28;20016;-87
2022/04/03 01:04:19;;;;;;;7.20;4.13;;;;;;;-2.36;100.00;100631.44;5076819;28;20074;-87
2022/04/03 01:06:45;;;;;;;5.95;4.15;;;;;;;-2.37;100.00;100629.66;5076936;28;20024;-88
2022/04/03 01:09:11;;;;;;;7.68;4.10;;;;;;;-2.36;100.00;100625.31;5078390;28;20028;-87
2022/04/03 01:11:38;;;;;;;6.25;3.60;;;;;;;-2.38;100.00;100627.00;5076126;28;20032;-86
2022/04/03 01:14:03;;;;;;;6.75;3.88;;;;;;;-2.28;100.00;100622.94;5078149;28;20021;-88
2022/04/03 01:16:29;;;;;;;6.25;3.63;;;;;;;-2.08;100.00;100617.34;5076708;28;20058;-87
2022/04/03 01:18:54;;;;;;;5.70;3.20;;;;;;;-2.05;100.00;100625.28;5078046;28;20030;-87
2022/04/03 01:21:19;;;;;;;6.13;3.53;;;;;;;-2.08;100.00;100625.19;5077762;28;20027;-86
2022/04/03 01:23:46;;;;;;;9.25;3.92;;;;;;;-2.00;100.00;100613.22;5077883;28;20069;-87
2022/04/03 01:26:12;;;;;;;7.07;4.20;;;;;;;-1.87;100.00;100619.69;5077380;28;20068;-86
2022/04/03 01:28:37;;;;;;;9.75;5.20;;;;;;;-2.11;100.00;100619.91;5076252;28;20032;-87
2022/04/03 01:31:05;;;;;;;8.13;3.80;;;;;;;-2.16;100.00;100618.03;5079836;28;20035;-87
2022/04/03 01:33:31;;;;;;;7.53;4.50;;;;;;;-2.09;100.00;100618.22;5095452;28;20096;-87
2022/04/03 01:35:56;;;;;;;9.18;3.88;;;;;;;-2.19;100.00;100617.09;5094536;28;20008;-87
2022/04/03 01:38:21;;;;;;;9.73;4.18;;;;;;;-2.28;100.00;100613.34;5093363;28;20025;-87
2022/04/03 01:40:47;;;;;;;7.22;4.00;;;;;;;-2.25;100.00;100612.56;5093162;28;20024;-87
2022/04/03 01:43:12;;;;;;;6.68;3.88;;;;;;;-2.17;100.00;100611.03;5092589;28;20024;-87
2022/04/03 01:45:38;;;;;;;6.80;4.40;;;;;;;-2.10;100.00;100611.19;5093733;28;20032;-86
2022/04/03 01:48:05;;;;;;;6.85;3.63;;;;;;;-2.07;100.00;100611.28;5093173;28;20032;-88
2022/04/03 01:50:31;;;;;;;9.40;3.92;;;;;;;-2.11;100.00;100617.28;5093625;28;20032;-87
2022/04/03 01:52:57;;;;;;;7.47;4.05;;;;;;;-2.25;100.00;100623.03;5093977;28;20021;-87
2022/04/03 01:55:28;;;;;;;7.15;3.95;;;;;;;-2.26;100.00;100623.84;5093468;28;20032;-87
2022/04/03 01:57:54;;;;;;;6.75;4.03;;;;;;;-2.21;100.00;100618.75;5093790;28;20050;-89
2022/04/03 02:00:20;;;;;;;7.10;4.00;;;;;;;-2.12;100.00;100619.03;5093174;28;20021;-87
2022/04/03 02:02:45;;;;;;;8.50;4.78;;;;;;;-2.17;100.00;100616.28;5093886;28;20070;-87
2022/04/03 02:05:11;;;;;;;7.65;3.80;;;;;;;-2.20;100.00;100618.81;5093116;28;20028;-87
2022/04/03 02:07:37;;;;;;;6.93;3.92;;;;;;;-2.15;100.00;100609.34;5093336;28;20088;-87
2022/04/03 02:10:04;;;;;;;6.20;3.95;;;;;;;-2.07;100.00;100606.94;5094129;28;20020;-87
2022/04/03 02:12:29;;;;;;;7.68;4.05;;;;;;;-2.09;100.00;100607.75;5093833;28;20027;-87
2022/04/03 02:14:54;;;;;;;6.40;3.60;;;;;;;-2.12;100.00;100608.56;5093508;28;20111;-86
2022/04/03 02:17:20;;;;;;;7.43;3.80;;;;;;;-2.05;100.00;100604.34;5092944;28;20016;-87
2022/04/03 02:19:45;;;;;;;6.97;4.03;;;;;;;-1.99;100.00;100599.31;5092144;28;20044;-87
2022/04/03 02:22:11;;;;;;;5.53;3.72;;;;;;;-2.01;100.00;100598.38;5092927;28;20024;-87
2022/04/03 02:24:36;;;;;;;7.43;3.95;;;;;;;-2.08;100.00;100609.50;5093689;28;20119;-87
2022/04/03 02:27:02;;;;;;;7.65;3.90;;;;;;;-2.17;100.00;100608.44;5093963;28;20051;-87
2022/04/03 02:29:27;;;;;;;8.52;4.20;;;;;;;-2.18;100.00;100606.66;5093527;28;20023;-87
2022/04/03 02:31:52;;;;;;;7.78;4.53;;;;;;;-2.25;100.00;100612.56;5092179;28;20028;-87
2022/04/03 02:34:20;;;;;;;8.30;4.20;;;;;;;-2.26;100.00;100605.53;5094306;28;20059;-86
2022/04/03 02:36:45;;;;;;;7.72;4.15;;;;;;;-2.15;100.00;100606.75;5093875;28;20080;-87
2022/04/03 02:39:14;;;;;;;7.07;4.22;;;;;;;-2.24;100.00;100601.22;5092049;28;20025;-87
2022/04/03 02:41:40;;;;;;;10.27;3.85;;;;;;;-2.13;100.00;100605.03;5092447;28;20020;-87
2022/04/03 02:44:05;;;;;;;9.15;4.43;;;;;;;-2.24;100.00;100603.84;5092759;28;20076;-87
2022/04/03 02:46:30;;;;;;;9.55;4.72;;;;;;;-2.28;100.00;100607.22;5090346;28;20040;-86
2022/04/03 02:48:57;;;;;;;7.45;4.05;;;;;;;-2.25;100.00;100602.09;5090541;28;20044;-87
2022/04/03 02:51:22;;;;;;;8.80;4.32;;;;;;;-2.21;100.00;100609.16;5093142;28;20017;-87
2022/04/03 02:53:48;;;;;;;9.23;4.70;;;;;;;-2.22;100.00;100607.41;5094956;28;20104;-88
2022/04/03 02:56:13;;;;;;;6.75;3.92;;;;;;;-2.18;100.00;100598.78;5096066;28;20032;-87
2022/04/03 02:58:40;;;;;;;7.82;4.38;;;;;;;-2.16;100.00;100598.81;5095004;22;20454;-77
2022/04/03 03:01:05;;;;;;;7.00;4.32;;;;;;;-2.03;100.00;100592.19;5075829;28;20021;-76
2022/04/03 03:03:31;;;;;;;8.13;4.68;;;;;;;-2.15;100.00;100593.66;5076078;28;20077;-77
2022/04/03 03:05:57;;;;;;;9.15;5.22;;;;;;;-2.29;100.00;100602.81;5074490;28;20031;-76
2022/04/03 03:08:22;;;;;;;7.82;4.03;;;;;;;-2.32;100.00;100606.25;5075905;28;20111;-76
2022/04/03 03:10:48;;;;;;;8.75;4.18;;;;;;;-2.28;100.00;100605.50;5075838;28;20031;-76
2022/04/03 03:13:13;;;;;;;9.07;3.97;;;;;;;-2.24;100.00;100603.84;5074366;28;20024;-76
2022/04/03 03:15:39;;;;;;;8.70;4.28;;;;;;;-2.16;100.00;100601.44;5074424;28;20028;-76
2022/04/03 03:18:04;;;;;;;12.60;4.13;;;;;;;-2.14;100.00;100611.09;5075676;28;20031;-76
2022/04/03 03:20:29;;;;;;;7.57;3.90;;;;;;;-2.13;100.00;100602.44;5074258;28;20519;-76
2022/04/03 03:22:55;;;;;;;8.55;3.97;;;;;;;-2.13;100.00;100599.81;5074263;28;20382;-77
2022/04/03 03:25:20;;;;;;;7.53;4.15;;;;;;;-2.14;100.00;100605.88;5075658;28;20385;-77
2022/04/03 03:27:45;;;;;;;6.78;3.78;;;;;;;-2.16;100.00;100607.56;5074735;28;20103;-77
2022/04/03 03:30:11;;;;;;;9.25;4.65;;;;;;;-1.97;100.00;100613.31;5075303;28;20477;-77
2022/04/03 03:32:37;;;;;;;8.82;4.25;;;;;;;-2.06;100.00;100613.06;5074004;28;20048;-76
2022/04/03 03:35:03;;;;;;;10.98;4.55;;;;;;;-2.12;100.00;100611.16;5075268;28;20043;-76
2022/04/03 03:37:29;;;;;;;8.02;4.22;;;;;;;-1.97;100.00;100612.41;5073932;28;20016;-76
2022/04/03 03:39:54;;;;;;;11.13;4.93;;;;;;;-2.01;100.00;100601.00;5075163;28;20449;-76
2022/04/03 03:42:19;;;;;;;7.57;4.35;;;;;;;-1.79;100.00;100593.69;5075113;28;20021;-77
2022/04/03 03:44:45;;;;;;;9.90;4.65;;;;;;;-1.89;100.00;100586.44;5073767;28;20075;-76
2022/04/03 03:47:11;;;;;;;12.68;5.13;;;;;;;-1.98;100.00;100595.81;5075449;28;20028;-76
2022/04/03 03:49:37;;;;;;;12.65;4.78;;;;;;;-1.92;100.00;100605.56;5074005;28;20020;-76
2022/04/03 03:52:03;;;;;;;9.25;4.28;;;;;;;-1.86;100.00;100599.63;5075142;28;20024;-77
2022/04/03 03:54:28;;;;;;;8.85;4.55;;;;;;;-1.80;100.00;100597.16;5073569;28;20393;-76
2022/04/03 03:56:54;;;;;;;12.38;4.53;;;;;;;-1.78;100.00;100597.22;5074785;28;20533;-76
2022/04/03 03:59:19;;;;;;;9.30;5.25;;;;;;;-1.97;100.00;100602.84;5073434;28;20393;-76
2022/04/03 04:01:44;;;;;;;7.00;4.47;;;;;;;-1.75;100.00;100600.78;5073769;28;20021;-77
2022/04/03 04:04:09;;;;;;;7.85;4.47;;;;;;;-1.83;100.00;100602.34;5074740;28;20500;-77
2022/04/03 04:06:35;;;;;;;10.70;4.40;;;;;;;-1.85;100.00;100609.22;5075064;28;20101;-77
2022/04/03 04:09:00;;;;;;;7.63;4.55;;;;;;;-1.84;100.00;100611.91;5074632;28;20035;-77
2022/04/03 04:11:25;;;;;;;7.68;4.78;;;;;;;-1.92;100.00;100609.09;5074969;28;20043;-76
2022/04/03 04:13:51;;;;;;;7.63;4.32;;;;;;;-1.96;100.00;100615.06;5074475;28;20039;-76
2022/04/03 04:16:16;;;;;;;10.38;5.47;;;;;;;-1.96;100.00;100609.84;5073285;28;20020;-77
2022/04/03 04:18:42;;;;;;;8.15;4.28;;;;;;;-1.93;100.00;100611.66;5075243;28;20081;-77
2022/04/03 04:21:11;;;;;;;8.73;4.63;;;;;;;-1.99;100.00;100611.50;5074461;28;20146;-77
2022/04/03 04:23:37;;;;;;;9.60;5.15;;;;;;;-1.99;100.00;100614.13;5073719;28;20021;-77
2022/04/03 04:26:03;;;;;;;7.95;4.45;;;;;;;-2.02;100.00;100614.91;5073274;28;20037;-76
2022/04/03 04:28:29;;;;;;;11.40;4.30;;;;;;;-2.01;100.00;100621.94;5073359;28;20489;-76
2022/04/03 04:30:57;;;;;;;8.23;4.50;;;;;;;-2.06;100.00;100620.94;5074580;28;20035;-77
2022/04/03 04:33:24;;;;;;;8.13;4.32;;;;;;;-2.10;100.00;100622.56;5074346;28;20051;-77
2022/04/03 04:35:50;;;;;;;7.20;4.40;;;;;;;-2.16;100.00;100623.28;5072518;28;20043;-77
2022/04/03 04:38:17;;;;;;;7.78;4.40;;;;;;;-2.20;100.00;100620.53;5074458;28;20505;-77
2022/04/03 04:40:43;;;;;;;11.30;4.65;;;;;;;-2.27;100.00;100624.72;5073964;28;20031;-77
2022/04/03 04:43:09;;;;;;;9.75;4.68;;;;;;;-2.17;100.00;100626.75;5073125;28;20031;-77
2022/04/03 04:45:34;;;;;;;7.18;4.28;;;;;;;-2.18;100.00;100624.97;5073974;28;20029;-77
2022/04/03 04:47:59;;;;;;;7.75;4.50;;;;;;;-2.18;100.00;100630.19;5074029;28;20094;-76
2022/04/03 04:50:30;;;;;;;10.10;4.78;;;;;;;-2.32;100.00;100627.16;5074122;28;20070;-77
2022/04/03 04:52:56;;;;;;;8.60;4.70;;;;;;;-2.39;100.00;100626.13;5073823;28;20542;-77
2022/04/03 04:55:22;;;;;;;8.68;4.53;;;;;;;-2.29;100.00;100631.59;5074093;28;20024;-77
2022/04/03 04:57:56;;;;;;;10.25;4.78;;;;;;;-2.38;100.00;100627.91;5072461;28;20024;-76
2022/04/03 05:00:24;;;;;;;9.07;4.80;;;;;;;-2.46;100.00;100629.41;5072483;28;20504;-77
2022/04/03 05:02:49;;;;;;;8.95;4.32;;;;;;;-2.47;100.00;100627.63;5074162;28;20027;-77
2022/04/03 05:05:17;;;;;;;9.68;4.50;;;;;;;-2.41;100.00;100626.91;5073725;28;20028;-77
2022/04/03 05:07:43;;;;;;;10.65;5.22;;;;;;;-2.28;100.00;100625.53;5073573;28;20024;-76
2022/04/03 05:10:11;;;;;;;8.68;4.90;;;;;;;-2.28;100.00;100628.16;5073730;28;20103;-76
2022/04/03 05:12:36;;;;;;;7.63;4.18;;;;;;;-2.31;100.00;100622.84;5072008;28;20059;-76
2022/04/03 05:15:02;;;;;;;9.35;4.78;;;;;;;-2.26;100.00;100618.63;5073124;28;20458;-76
2022/04/03 05:17:28;;;;;;;6.88;4.47;;;;;;;-2.29;100.00;100621.13;5072115;28;20017;-76
2022/04/03 05:19:54;;;;;;;8.25;4.72;;;;;;;-2.53;100.00;100620.50;5073356;28;20500;-76
2022/04/03 05:22:23;;;;;;;9.60;4.50;;;;;;;-2.52;100.00;100623.97;5073489;28;20440;-76
2022/04/03 05:24:49;;;;;;;9.50;4.53;;;;;;;-2.42;100.00;100619.94;5073412;28;20099;-75
2022/04/03 05:27:14;;;;;;;8.25;4.40;;;;;;;-2.41;100.00;100627.81;5071954;28;20098;-75
2022/04/03 05:29:40;;;;;;;8.95;4.72;;;;;;;-2.47;100.00;100627.63;5073213;28;20038;-75
2022/04/03 05:32:07;;;;;;;7.88;4.88;;;;;;;-2.43;100.00;100632.13;5071823;28;20021;-75
2022/04/03 05:34:32;;;;;;;10.70;5.20;;;;;;;-2.43;100.00;100637.34;5073011;28;20366;-75
2022/04/03 05:36:58;;;;;;;8.38;5.15;;;;;;;-2.50;100.00;100635.41;5073096;28;20115;-75
2022/04/03 05:39:23;;;;;;;9.63;5.13;;;;;;;-2.31;100.00;100635.91;5071943;28;20119;-75
2022/04/03 05:41:53;;;;;;;7.60;4.63;;;;;;;-2.28;100.00;100630.78;5073098;28;20020;-75
2022/04/03 05:44:18;;;;;;;10.90;5.30;;;;;;;-2.10;100.00;100619.94;5073555;28;20516;-75
2022/04/03 05:46:44;;;;;;;10.68;5.00;;;;;;;-2.12;100.00;100624.25;5072924;28;20063;-75
2022/04/03 05:49:09;;;;;;;16.02;5.78;;;;;;;-2.18;100.00;100624.97;5073131;28;20028;-75
2022/04/03 05:51:34;;;;;;;17.40;5.45;;;;;;;-2.25;100.00;100633.50;5073267;28;20028;-75
2022/04/03 05:53:59;;;;;;;10.30;4.68;;;;;;;-2.11;100.00;100625.16;5072843;28;20056;-75
2022/04/03 05:56:27;;;;;;;11.38;4.40;;;;;;;-2.11;100.00;100627.75;5073254;28;20380;-75
2022/04/03 05:58:53;;;;;;;8.63;4.28;;;;;;;-2.02;100.00;100628.00;5072796;28;20035;-75
2022/04/03 06:01:18;;;;;;;8.50;4.47;;;;;;;-1.89;100.00;100641.41;5071618;28;20017;-75
2022/04/03 06:03:43;;;;;;;10.23;4.95;;;;;;;-1.80;100.00;100641.66;5072972;28;20073;-75
2022/04/03 06:06:09;;;;;;;7.95;4.10;;;;;;;-1.83;100.00;100647.69;5072798;28;20036;-75
2022/04/03 06:08:34;;;;;;;7.55;4.03;;;;;;;-1.88;100.00;100649.31;5071764;28;20021;-75
2022/04/03 06:10:59;;;;;;;7.97;3.83;;;;;;;-1.96;100.00;100651.72;5071486;28;20025;-75
2022/04/03 06:13:25;;;;;;;8.05;3.95;;;;;;;-1.91;100.00;100650.09;5072727;28;20070;-76
2022/04/03 06:15:50;;;;;;;8.43;4.00;;;;;;;-1.85;100.00;100654.63;5072707;28;20034;-76
2022/04/03 06:18:17;;;;;;;7.35;4.13;;;;;;;-1.82;100.00;100661.69;5072655;28;20107;-76
2022/04/03 06:20:42;;;;;;;8.00;3.58;;;;;;;-1.75;100.00;100660.13;5072718;28;20024;-76
2022/04/03 06:23:11;;;;;;;6.50;3.92;;;;;;;-1.66;100.00;100669.94;5071392;28;20400;-76
2022/04/03 06:25:37;;;;;;;7.50;4.00;;;;;;;-1.46;100.00;100665.22;5073873;28;20032;-76
2022/04/03 06:28:02;;;;;;;5.80;3.50;;;;;;;-1.50;100.00;100666.00;5076732;28;20032;-76
2022/04/03 06:30:28;;;;;;;6.70;3.90;;;;;;;-1.54;100.00;100657.16;5076467;28;20027;-76
2022/04/03 06:32:53;;;;;;;6.70;3.05;;;;;;;-1.49;100.00;100659.91;5076324;28;20024;-76
2022/04/03 06:35:19;;;;;;;6.45;3.15;;;;;;;-1.40;100.00;100662.78;5076534;28;20016;-75
2022/04/03 06:37:44;;;;;;;9.80;3.72;;;;;;;-1.29;100.00;100665.66;5076215;28;20101;-76
2022/04/03 06:40:10;;;;;;;7.30;3.80;;;;;;;-1.20;100.00;100661.50;5076500;28;20020;-76
2022/04/03 06:42:35;;;;;;;9.02;3.65;;;;;;;-1.06;100.00;100665.34;5076111;28;20366;-75
2022/04/03 06:45:03;;;;;;;7.07;3.42;;;;;;;-1.04;100.00;100661.03;5076077;28;20214;-76
2022/04/03 06:47:30;;;;;;;10.75;3.97;;;;;;;-0.98;99.88;100664.66;5076317;28;20024;-76
2022/04/03 06:49:55;;;;;;;6.10;2.80;;;;;;;-0.88;100.00;100666.63;5076059;28;20024;-76
2022/04/03 06:52:20;;;;;;;7.45;2.67;;;;;;;-0.76;98.50;100667.75;5076050;28;20389;-76
2022/04/03 06:54:46;;;;;;;6.82;2.88;;;;;;;-0.72;98.01;100659.13;5075967;28;20020;-76
2022/04/03 06:57:14;;;;;;;11.68;3.25;;;;;;;-0.61;96.86;100660.22;5075931;28;20032;-76
2022/04/03 06:59:43;;;;;;;8.65;2.95;;;;;;;-0.52;97.48;100661.28;5075798;28;20024;-76
2022/04/03 07:02:09;;;;;;;5.43;2.80;;;;;;;-0.44;95.21;100662.34;5075822;28;20020;-76
2022/04/03 07:04:35;;;;;;;7.53;2.88;;;;;;;-0.36;94.92;100660.75;5076209;28;20070;-76
2022/04/03 07:07:00;;;;;;;4.85;2.67;;;;;;;-0.34;94.03;100668.69;5075763;28;20028;-76
2022/04/03 07:09:25;;;;;;;6.57;2.65;;;;;;;-0.46;94.16;100664.03;5075720;28;20435;-76
2022/04/03 07:11:51;;;;;;;6.40;2.50;;;;;;;-0.53;95.16;100665.66;5074295;28;20020;-76
2022/04/03 07:14:16;;;;;;;5.63;2.70;;;;;;;-0.59;95.94;100669.03;5075552;28;20024;-76
2022/04/03 07:16:41;;;;;;;6.13;2.47;;;;;;;-0.40;95.41;100669.44;5076006;28;20024;-76
2022/04/03 07:19:07;;;;;;;7.57;3.20;;;;;;;-0.41;96.44;100667.66;5074181;28;20020;-76
2022/04/03 07:21:32;;;;;;;4.53;2.25;;;;;;;-0.35;96.81;100670.41;5075442;28;20556;-76
2022/04/03 07:23:58;;;;;;;4.45;2.28;;;;;;;-0.23;95.76;100674.13;5074099;28;20066;-76
2022/04/03 07:26:23;;;;;;;5.55;2.45;;;;;;;-0.18;95.27;100675.13;5075416;28;20103;-76
2022/04/03 07:28:48;;;;;;;4.95;2.42;;;;;;;0.03;93.25;100679.03;5075319;28;20078;-76
2022/04/03 07:31:14;;;;;;;4.18;2.58;;;;;;;0.02;93.76;100674.66;5075362;28;20016;-76
2022/04/03 07:33:39;;;;;;;3.92;2.10;;;;;;;0.18;92.63;100672.34;5073812;28;20043;-76
2022/04/03 07:36:05;;;;;;;8.68;2.15;;;;;;;0.21;92.44;100669.75;5074052;28;20103;-76
2022/04/03 07:38:30;;;;;;;3.97;2.03;;;;;;;0.26;90.72;100665.47;5075163;28;20482;-76
2022/04/03 07:40:57;;;;;;;3.13;1.70;;;;;;;0.41;86.50;100677.13;5073882;28;20112;-77
2022/04/03 07:43:23;;;;;;;3.55;1.42;;;;;;;0.59;84.98;100673.06;5075145;28;20017;-75
2022/04/03 07:45:51;;;;;;;4.05;1.83;;;;;;;0.66;84.41;100682.81;5074940;28;20029;-75
2022/04/03 07:48:16;;;;;;;2.95;1.55;;;;;;;0.83;82.38;100672.56;5073736;28;20025;-75
2022/04/03 07:50:42;;;;;;;5.00;1.63;;;;;;;0.85;83.03;100670.84;5073658;28;20038;-75
2022/04/03 07:53:08;;;;;;;4.35;1.70;;;;;;;0.83;82.90;100672.56;5074847;28;20489;-76
2022/04/03 07:55:33;;;;;;;4.93;1.90;;;;;;;0.94;82.46;100666.59;5074713;28;20112;-75
2022/04/03 07:57:59;;;;;;;5.00;1.85;;;;;;;1.06;82.21;100669.41;5074601;28;20025;-75
2022/04/03 08:00:24;;;;;;;3.95;1.65;;;;;;;1.19;82.29;100669.59;5073478;28;20024;-75
2022/04/03 08:02:49;;;;;;;4.18;1.75;;;;;;;1.31;82.50;100675.06;5074976;28;20461;-76
2022/04/03 08:05:15;;;;;;;5.78;1.90;;;;;;;1.32;81.31;100682.09;5074538;28;20024;-75
2022/04/03 08:07:46;;;;;;;4.45;1.60;;;;;;;1.55;80.28;100667.47;5074714;28;20024;-75
2022/04/03 08:10:16;;;;;;;4.25;1.50;;;;;;;1.60;79.39;100675.47;5074649;28;20608;-76
2022/04/03 08:12:43;;;;;;;5.55;1.88;;;;;;;1.60;79.23;100670.19;5073197;28;20073;-75
2022/04/03 08:15:10;;;;;;;3.55;1.90;;;;;;;1.77;79.74;100668.66;5074610;28;20106;-76
2022/04/03 08:17:38;;;;;;;3.78;1.70;;;;;;;1.87;78.12;100663.50;5073168;28;20025;-76
2022/04/03 08:20:04;;;;;;;3.15;1.63;;;;;;;1.86;80.22;100665.25;5073334;28;20027;-76
2022/04/03 08:22:30;;;;;;;4.43;2.10;;;;;;;1.94;79.06;100661.81;5074612;28;20469;-76
2022/04/03 08:24:55;;;;;;;5.03;1.40;;;;;;;2.09;78.44;100669.91;5074175;28;20073;-76
2022/04/03 08:27:20;;;;;;;4.55;1.40;;;;;;;2.20;79.11;100677.03;5074229;28;20028;-75
2022/04/03 08:29:46;;;;;;;4.72;1.58;;;;;;;2.37;77.43;100679.84;5074029;28;20416;-75
2022/04/03 08:32:13;;;;;;;3.88;1.30;;;;;;;2.51;76.46;100669.44;5072819;28;20052;-75
2022/04/03 08:34:38;;;;;;;3.40;1.40;;;;;;;2.52;76.85;100678.25;5074084;28;20104;-75
2022/04/03 08:37:03;;;;;;;4.60;1.40;;;;;;;2.70;76.67;100668.72;5073989;28;20116;-76
2022/04/03 08:39:29;;;;;;;2.83;1.30;;;;;;;2.83;77.41;100673.25;5074284;28;20552;-75
2022/04/03 08:41:55;;;;;;;5.30;1.35;;;;;;;2.95;77.57;100679.47;5072730;28;20028;-75
2022/04/03 08:44:21;;;;;;;2.75;1.30;;;;;;;2.78;78.37;100683.75;5072615;28;20107;-75
2022/04/03 08:46:48;;;;;;;3.60;1.35;;;;;;;2.56;79.15;100683.56;5073887;28;20063;-75
2022/04/03 08:49:16;;;;;;;4.32;1.30;;;;;;;2.70;78.66;100677.53;5071988;28;20460;-75
2022/04/03 08:51:42;;;;;;;4.22;1.48;;;;;;;2.76;78.54;100685.50;5073809;28;20103;-77
2022/04/03 08:54:09;;;;;;;4.00;1.48;;;;;;;2.75;78.35;100681.09;5073600;28;20034;-76
2022/04/03 08:56:34;;;;;;;3.85;1.50;;;;;;;2.67;77.26;100680.13;5072384;28;20090;-76
2022/04/03 08:58:59;;;;;;;3.65;1.20;;;;;;;2.58;77.93;100686.19;5110725;22;20048;-86
2022/04/03 09:01:25;;;;;;;5.30;1.40;;;;;;;2.53;78.51;100678.25;5087268;28;20021;-89
2022/04/03 09:03:50;;;;;;;2.95;1.40;;;;;;;2.57;78.11;100679.19;5083508;28;20093;-86
2022/04/03 09:06:21;;;;;;;3.60;1.30;;;;;;;2.73;78.42;100688.09;5094747;28;20397;-86
2022/04/03 09:08:48;;;;;;;5.47;1.48;;;;;;;2.78;77.02;100685.53;5097956;28;20034;-86
2022/04/03 09:11:18;;;;;;;4.13;1.30;;;;;;;2.78;77.92;100686.38;5079779;28;20059;-86
2022/04/03 09:13:47;;;;;;;2.67;1.20;;;;;;;2.73;78.65;100674.91;5079899;28;20496;-86
2022/04/03 09:16:13;;;;;;;3.92;1.13;;;;;;;2.83;76.45;100682.91;5081848;28;20044;-87
2022/04/03 09:18:48;;;;;;;3.95;1.45;;;;;;;2.92;76.67;100672.44;5079360;28;20055;-86
2022/04/03 09:21:22;;;;;;;3.15;1.15;;;;;;;3.09;74.33;100683.09;5079043;28;20032;-86
2022/04/03 09:24:13;;;;;;;4.22;1.30;;;;;;;3.23;73.18;100667.38;5079811;28;20028;-87
2022/04/03 09:30:43;;;;;;;2.38;1.10;;;;;;;3.11;72.86;100667.31;5065798;28;20512;-87
2022/04/03 09:36:15;;;;;;;4.60;1.35;;;;;;;3.99;70.49;100673.03;5015604;28;20064;-86
2022/04/03 09:39:34;;;;;;;3.35;1.33;;;;;;;3.76;70.41;100671.19;5063366;28;20036;-88
2022/04/03 09:42:30;;;;;;;2.63;1.20;;;;;;;3.78;68.93;100669.44;5058458;28;20059;-87
2022/04/03 09:45:07;;;;;;;3.25;1.10;;;;;;;3.85;67.99;100679.16;5077639;28;20029;-87
2022/04/03 09:48:19;;;;;;;2.70;1.17;;;;;;;3.98;70.84;100666.88;5080740;28;20402;-86
2022/04/03 09:51:09;;;;;;;3.80;1.30;;;;;;;3.94;67.87;100664.22;5071604;28;20212;-89
2022/04/03 09:54:11;;;;;;;2.92;1.10;;;;;;;4.30;70.54;100656.38;5077316;28;20025;-86
2022/04/03 09:57:27;;;;;;;;;;;;;;;;;;;;;
2022/04/03 10:00:38;;;;;;;2.97;1.48;;;;;;;4.25;71.35;100643.16;5082902;28;20091;-86
2022/04/03 10:03:19;;;;;;;2.10;1.23;;;;;;;3.97;73.36;100654.50;5094207;28;20024;-86
2022/04/03 10:05:53;;;;;;;2.75;1.23;;;;;;;4.10;74.28;100643.97;5079897;28;20024;-86
2022/04/03 10:11:34;;;;;;;2.78;1.50;;;;;;;3.82;77.09;100644.78;5080781;28;20028;-85
2022/04/03 10:14:29;;;;;;;3.83;1.40;;;;;;;3.87;76.74;100643.03;5084429;28;20028;-85
2022/04/03 10:16:55;;;;;;;4.88;1.50;;;;;;;4.16;78.31;100644.00;5082051;28;20032;-86
2022/04/03 10:19:21;;;;;;;4.68;1.77;;;;;;;4.17;79.11;100634.31;5081031;28;20401;-85
2022/04/03 10:22:02;;;;;;;4.75;2.15;;;;;;;4.24;81.96;100638.75;5085454;28;20024;-86
2022/04/03 10:24:44;;;;;;;4.95;1.73;;;;;;;4.07;81.60;100642.22;5083546;28;20443;-87
2022/04/03 10:27:30;;;;;;;8.75;3.78;;;;;;;4.19;82.49;100645.78;5080590;28;20028;-85
2022/04/03 10:30:21;;;;;;;3.65;1.48;;;;;;;4.15;81.66;100636.94;5067582;28;20119;-86
2022/04/03 10:33:48;;;;;;;4.03;1.80;;;;;;;4.22;82.75;100638.75;5078509;28;20039;-87
2022/04/03 10:37:12;;;;;;;2.90;1.20;;;;;;;4.30;79.23;100628.19;5078076;28;20032;-86
2022/04/03 10:39:50;;;;;;;2.58;1.40;;;;;;;4.49;78.93;100636.13;4996618;28;20078;-87
2022/04/03 10:43:15;;;;;;;;;;;;;;;;;;;;;
2022/04/03 10:46:07;;;;;;;41.80;37.65;;;;;;;4.92;78.73;100629.09;5086246;28;20111;-86
2022/04/03 10:51:53;;;;;;;3.70;1.67;;;;;;;4.41;81.72;100641.41;5085434;28;20194;-86
2022/04/03 10:54:57;;;;;;;3.10;1.73;;;;;;;4.46;80.98;100628.19;5039384;28;20120;-87
2022/04/03 10:58:48;;;;;;;4.88;1.40;;;;;;;4.21;83.20;100631.69;5081060;28;20033;-87
2022/04/03 11:01:27;;;;;;;5.13;1.70;;;;;;;4.49;82.38;100635.22;5087407;28;20042;-85
2022/04/03 11:04:14;;;;;;;4.13;1.92;;;;;;;4.52;83.37;100616.72;5088094;28;20044;-87
2022/04/03 11:07:10;;;;;;;6.40;2.08;;;;;;;4.61;82.75;100621.16;5080603;28;20031;-87
2022/04/03 11:09:41;;;;;;;3.80;1.70;;;;;;;4.46;83.08;100618.50;5022627;28;20498;-86
2022/04/03 11:12:29;;;;;;;5.05;1.60;;;;;;;4.26;82.43;100618.47;5025156;28;20120;-87
2022/04/03 11:15:19;;;;;;;4.30;1.60;;;;;;;4.00;83.90;100622.81;5027686;28;20040;-87
2022/04/03 11:21:41;;;;;;;6.30;1.70;;;;;;;3.82;85.80;100618.38;5017930;28;20037;-87
2022/04/03 11:24:47;;;;;;;3.55;1.67;;;;;;;3.79;88.77;100611.31;5050997;28;20493;-84
2022/04/03 11:27:59;;;;;;;3.70;1.90;;;;;;;3.76;89.98;100623.66;5000962;28;20034;-87
2022/04/03 11:30:37;;;;;;;2.95;1.70;;;;;;;4.07;88.49;100613.13;5055391;28;20036;-86
2022/04/03 11:33:08;;;;;;;3.20;1.80;;;;;;;4.69;87.86;100606.16;5083105;28;20025;-87
2022/04/03 11:35:40;;;;;;;3.05;1.80;;;;;;;5.20;83.42;100606.97;5080735;28;20028;-86
2022/04/03 11:38:41;;;;;;;2.83;1.80;;;;;;;4.74;82.92;100599.09;5081512;28;20127;-86
2022/04/03 11:41:46;;;;;;;5.50;2.25;;;;;;;4.40;85.50;100599.09;5085946;28;20036;-87
2022/04/03 11:44:46;;;;;;;;;;;;;;;;;;;;;
2022/04/03 11:47:29;;;;;;;3.33;1.55;;;;;;;4.30;81.32;100593.81;5077523;28;20039;-86
2022/04/03 11:50:15;;;;;;;2.78;1.42;;;;;;;4.34;82.19;100595.56;5082603;28;20046;-86
2022/04/03 11:52:45;;;;;;;4.13;1.67;;;;;;;4.78;83.72;100586.75;5081595;28;20049;-87
2022/04/03 11:55:25;;;;;;;2.88;1.50;;;;;;;4.76;81.99;100585.88;5081028;28;20028;-87
2022/04/03 11:58:12;;;;;;;3.88;1.65;;;;;;;5.24;80.71;100580.47;5080813;28;20047;-85